Time;durP1;ratioP1;P1;durP2;ratioP2;P2;SDS_P1;SDS_P2;PMS_P1;PMS_P2;Temp;Humidity;BMP_temperature;BMP_pressure;BME280_temperature;BME280_humidity;BME280_pressure;Samples;Min_cycle;Max_cycle;Signal;HPM_P1;HPM_P2
2024/03/18 00:01:26;;;;;;;;;;;18.00;62.70;;;;;;5038083;28;1257;-71
2024/03/18 00:03:52;;;;;;;;;;;18.00;62.70;;;;;;5038431;28;1339;-71
2024/03/18 00:06:17;;;;;;;;;;;18.00;62.70;;;;;;5038242;28;1922;-71
2024/03/18 00:08:45;;;;;;;;;;;18.00;62.70;;;;;;5046267;28;1552;-71
2024/03/18 00:11:11;;;;;;;;;;;18.00;62.70;;;;;;5046991;28;1505;-72
2024/03/18 00:13:37;;;;;;;;;;;17.90;62.60;;;;;;5029954;28;1423;-72
2024/03/18 00:16:03;;;;;;;;;;;18.00;62.70;;;;;;5045898;28;1241;-72
2024/03/18 00:18:29;;;;;;;;;;;18.00;62.70;;;;;;5039675;28;1351;-72
2024/03/18 00:20:54;;;;;;;;;;;17.90;62.60;;;;;;5040318;28;1268;-72
2024/03/18 00:23:20;;;;;;;;;;;18.00;62.80;;;;;;5043006;28;1335;-72
2024/03/18 00:25:45;;;;;;;;;;;17.90;62.70;;;;;;5060708;28;1292;-72
2024/03/18 00:28:12;;;;;;;;;;;17.90;62.70;;;;;;5043644;28;1906;-72
2024/03/18 00:30:39;;;;;;;;;;;17.90;62.70;;;;;;5040236;28;1362;-72
2024/03/18 00:33:04;;;;;;;;;;;17.90;62.70;;;;;;5043716;28;1363;-72
2024/03/18 00:35:30;;;;;;;;;;;17.90;62.70;;;;;;5041078;28;990;-72
2024/03/18 00:37:55;;;;;;;;;;;17.90;62.70;;;;;;5049843;28;1287;-72
2024/03/18 00:40:21;;;;;;;;;;;17.90;62.70;;;;;;5040174;28;899;-72
2024/03/18 00:42:47;;;;;;;;;;;17.90;62.70;;;;;;5078339;28;1133;-72
2024/03/18 00:45:14;;;;;;;;;;;17.90;62.70;;;;;;5047487;28;1412;-72
2024/03/18 00:47:40;;;;;;;;;;;17.90;62.80;;;;;;5042172;28;1902;-72
2024/03/18 00:50:09;;;;;;;;;;;17.90;62.70;;;;;;5044665;28;1072;-72
2024/03/18 00:52:35;;;;;;;;;;;17.90;62.70;;;;;;5042133;28;879;-71
2024/03/18 00:55:00;;;;;;;;;;;17.90;62.70;;;;;;5038407;28;1325;-71
2024/03/18 00:57:26;;;;;;;;;;;17.90;62.70;;;;;;5040472;28;1280;-71
2024/03/18 00:59:52;;;;;;;;;;;17.90;62.70;;;;;;5042263;28;1227;-71
2024/03/18 01:02:17;;;;;;;;;;;17.90;62.70;;;;;;5041506;28;1565;-72
2024/03/18 01:04:43;;;;;;;;;;;17.90;62.70;;;;;;5042091;28;1351;-72
2024/03/18 01:07:08;;;;;;;;;;;17.90;62.70;;;;;;5043120;28;1934;-73
2024/03/18 01:09:34;;;;;;;;;;;17.90;62.70;;;;;;5043072;28;1293;-72
2024/03/18 01:12:00;;;;;;;;;;;17.90;62.70;;;;;;5042341;28;1524;-72
2024/03/18 01:14:26;;;;;;;;;;;17.90;62.70;;;;;;5042349;28;1569;-72
2024/03/18 01:16:51;;;;;;;;;;;17.90;62.70;;;;;;5042915;28;1161;-72
2024/03/18 01:19:17;;;;;;;;;;;17.90;62.70;;;;;;5048136;28;1285;-72
2024/03/18 01:21:44;;;;;;;;;;;17.90;62.70;;;;;;5043587;28;892;-72
2024/03/18 01:24:10;;;;;;;;;;;17.90;62.70;;;;;;5038968;28;1380;-72
2024/03/18 01:26:36;;;;;;;;;;;17.90;62.70;;;;;;5041066;28;1953;-72
2024/03/18 01:29:02;;;;;;;;;;;17.90;62.70;;;;;;5045434;28;1406;-72
2024/03/18 01:31:27;;;;;;;;;;;17.90;62.70;;;;;;5042191;28;1417;-72
2024/03/18 01:33:54;;;;;;;;;;;17.90;62.70;;;;;;5045978;28;1440;-72
2024/03/18 01:36:19;;;;;;;;;;;17.90;62.70;;;;;;5042611;28;1317;-72
2024/03/18 01:38:44;;;;;;;;;;;17.90;62.60;;;;;;5041127;28;1411;-72
2024/03/18 01:41:10;;;;;;;;;;;17.90;62.70;;;;;;5041996;28;1474;-72
2024/03/18 01:43:37;;;;;;;;;;;17.90;62.70;;;;;;5046464;28;1319;-72
2024/03/18 01:46:02;;;;;;;;;;;17.90;62.60;;;;;;5042059;28;1807;-71
2024/03/18 01:48:28;;;;;;;;;;;17.90;62.60;;;;;;5046705;28;1957;-72
2024/03/18 01:50:53;;;;;;;;;;;17.90;62.60;;;;;;5043139;28;1580;-72
2024/03/18 01:53:19;;;;;;;;;;;17.90;62.70;;;;;;5042213;28;1524;-72
2024/03/18 01:55:44;;;;;;;;;;;17.90;62.60;;;;;;5048731;28;1506;-72
2024/03/18 01:58:09;;;;;;;;;;;17.90;62.60;;;;;;5043138;28;1288;-72
2024/03/18 02:00:35;;;;;;;;;;;17.90;62.60;;;;;;5047006;28;1249;-72
2024/03/18 02:03:05;;;;;;;;;;;17.90;62.60;;;;;;5051902;28;1589;-72
2024/03/18 02:05:33;;;;;;;;;;;17.90;62.60;;;;;;5045596;28;1286;-72
2024/03/18 02:07:59;;;;;;;;;;;17.90;62.60;;;;;;5045344;28;1959;-72
2024/03/18 02:10:25;;;;;;;;;;;17.90;62.60;;;;;;5044126;28;1355;-72
2024/03/18 02:12:52;;;;;;;;;;;17.90;62.60;;;;;;5083680;28;1295;-72
2024/03/18 02:15:17;;;;;;;;;;;17.90;62.60;;;;;;5041044;28;1358;-72
2024/03/18 02:17:43;;;;;;;;;;;17.90;62.60;;;;;;5044493;28;1564;-72
2024/03/18 02:20:09;;;;;;;;;;;17.90;62.60;;;;;;5045635;28;1353;-72
2024/03/18 02:22:35;;;;;;;;;;;17.90;62.60;;;;;;5043167;28;1261;-72
2024/03/18 02:25:02;;;;;;;;;;;17.90;62.60;;;;;;5042967;28;1359;-72
2024/03/18 02:27:28;;;;;;;;;;;17.90;62.60;;;;;;5044771;28;1971;-72
2024/03/18 02:29:57;;;;;;;;;;;17.90;62.60;;;;;;5041283;28;1532;-72
2024/03/18 02:32:22;;;;;;;;;;;17.90;62.60;;;;;;5045063;28;1453;-72
2024/03/18 02:34:48;;;;;;;;;;;17.90;62.60;;;;;;5048714;28;1319;-72
2024/03/18 02:37:13;;;;;;;;;;;17.90;62.60;;;;;;5046192;28;1724;-72
2024/03/18 02:39:39;;;;;;;;;;;17.90;63.30;;;;;;5043550;28;1268;-72
2024/03/18 02:42:06;;;;;;;;;;;17.90;62.60;;;;;;5039393;28;1482;-72
2024/03/18 02:44:32;;;;;;;;;;;17.90;62.60;;;;;;5043722;28;1250;-71
2024/03/18 02:46:58;;;;;;;;;;;17.90;62.60;;;;;;5025739;28;1886;-71
2024/03/18 02:49:23;;;;;;;;;;;17.90;62.60;;;;;;5044613;28;986;-72
2024/03/18 02:51:49;;;;;;;;;;;17.90;62.60;;;;;;5048457;28;1567;-72
2024/03/18 02:54:14;;;;;;;;;;;17.90;62.60;;;;;;5043472;28;1415;-72
2024/03/18 02:56:40;;;;;;;;;;;17.90;62.60;;;;;;5042146;28;1444;-71
2024/03/18 02:59:05;;;;;;;;;;;17.90;62.50;;;;;;5047880;28;1258;-72
2024/03/18 03:01:30;;;;;;;;;;;17.90;62.50;;;;;;5049840;28;1605;-71
2024/03/18 03:03:57;;;;;;;;;;;17.90;62.50;;;;;;5039250;28;1547;-70
2024/03/18 03:06:23;;;;;;;;;;;17.90;62.50;;;;;;5040244;28;1902;-70
2024/03/18 03:08:48;;;;;;;;;;;17.90;62.60;;;;;;5042525;28;1631;-72
2024/03/18 03:11:14;;;;;;;;;;;17.90;62.50;;;;;;5043783;28;1458;-71
2024/03/18 03:13:39;;;;;;;;;;;17.90;62.50;;;;;;5043072;28;1375;-71
2024/03/18 03:16:08;;;;;;;;;;;17.90;62.60;;;;;;5040531;28;1316;-71
2024/03/18 03:18:34;;;;;;;;;;;17.90;62.60;;;;;;5023749;28;1556;-69
2024/03/18 03:20:59;;;;;;;;;;;17.90;62.60;;;;;;5039104;28;1313;-70
2024/03/18 03:23:25;;;;;;;;;;;17.90;62.60;;;;;;5041017;28;1670;-69
2024/03/18 03:25:50;;;;;;;;;;;17.90;62.60;;;;;;5038332;28;1272;-70
2024/03/18 03:28:16;;;;;;;;;;;17.90;62.60;;;;;;5039501;28;1906;-70
2024/03/18 03:30:41;;;;;;;;;;;17.90;62.60;;;;;;5036157;28;1426;-73
2024/03/18 03:33:07;;;;;;;;;;;17.90;62.60;;;;;;5044277;28;1525;-70
2024/03/18 03:35:32;;;;;;;;;;;17.90;62.60;;;;;;5050166;28;1342;-69
2024/03/18 03:37:58;;;;;;;;;;;17.90;62.60;;;;;;5045191;28;1359;-69
2024/03/18 03:40:23;;;;;;;;;;;17.90;62.60;;;;;;5044992;28;1395;-71
2024/03/18 03:42:49;;;;;;;;;;;17.90;62.60;;;;;;5048083;28;1520;-69
2024/03/18 03:45:14;;;;;;;;;;;17.90;62.60;;;;;;5039009;28;1448;-69
2024/03/18 03:47:40;;;;;;;;;;;17.90;62.60;;;;;;5038211;28;1963;-72
2024/03/18 03:50:06;;;;;;;;;;;17.90;62.60;;;;;;5030224;28;1107;-71
2024/03/18 03:52:32;;;;;;;;;;;17.90;62.60;;;;;;5024014;28;1329;-71
2024/03/18 03:54:57;;;;;;;;;;;17.90;62.60;;;;;;5038595;28;1762;-71
2024/03/18 03:57:23;;;;;;;;;;;17.90;62.60;;;;;;5023205;28;1595;-71
2024/03/18 03:59:48;;;;;;;;;;;17.90;62.60;;;;;;5037968;28;1540;-68
2024/03/18 04:02:15;;;;;;;;;;;17.90;62.60;;;;;;5040085;28;1127;-71
2024/03/18 04:04:41;;;;;;;;;;;17.90;62.60;;;;;;5036982;28;1586;-72
2024/03/18 04:07:07;;;;;;;;;;;17.90;62.60;;;;;;5038524;28;1959;-71
2024/03/18 04:09:32;;;;;;;;;;;17.90;62.60;;;;;;5040476;28;1260;-72
2024/03/18 04:11:57;;;;;;;;;;;17.90;62.60;;;;;;5038258;28;1322;-72
2024/03/18 04:14:23;;;;;;;;;;;17.90;62.60;;;;;;5040301;28;1287;-72
2024/03/18 04:16:48;;;;;;;;;;;17.90;62.80;;;;;;5041741;28;1324;-73
2024/03/18 04:19:14;;;;;;;;;;;17.90;62.60;;;;;;5039179;28;1463;-74
2024/03/18 04:21:39;;;;;;;;;;;17.80;62.60;;;;;;5036179;28;1322;-74
2024/03/18 04:24:08;;;;;;;;;;;17.90;62.60;;;;;;5037709;28;1407;-73
2024/03/18 04:26:34;;;;;;;;;;;17.90;62.60;;;;;;5038325;28;1894;-71
2024/03/18 04:29:00;;;;;;;;;;;17.90;63.40;;;;;;5039860;28;1440;-73
2024/03/18 04:31:25;;;;;;;;;;;17.90;62.60;;;;;;5036721;28;1448;-74
2024/03/18 04:33:50;;;;;;;;;;;17.90;62.60;;;;;;5034211;28;1701;-73
2024/03/18 04:36:16;;;;;;;;;;;17.90;62.60;;;;;;5039498;28;1315;-72
2024/03/18 04:38:41;;;;;;;;;;;17.90;62.70;;;;;;5039308;28;1451;-71
2024/03/18 04:41:08;;;;;;;;;;;17.90;62.60;;;;;;5043924;28;1669;-71
2024/03/18 04:43:33;;;;;;;;;;;17.90;62.70;;;;;;5046388;28;1326;-72
2024/03/18 04:45:58;;;;;;;;;;;17.90;62.60;;;;;;5045183;28;1238;-71
2024/03/18 04:48:24;;;;;;;;;;;17.90;62.60;;;;;;5056480;28;1902;-71
2024/03/18 04:50:49;;;;;;;;;;;17.90;62.70;;;;;;5050285;28;1098;-71
2024/03/18 04:53:15;;;;;;;;;;;17.90;62.60;;;;;;5048626;28;1209;-71
2024/03/18 04:55:40;;;;;;;;;;;17.80;62.60;;;;;;5044877;28;1331;-72
2024/03/18 04:58:06;;;;;;;;;;;17.80;62.60;;;;;;5043352;28;951;-71
2024/03/18 05:00:31;;;;;;;;;;;17.90;62.60;;;;;;5073215;28;914;-72
2024/03/18 05:02:57;;;;;;;;;;;17.90;62.70;;;;;;5049554;28;1017;-71
2024/03/18 05:05:22;;;;;;;;;;;17.90;62.70;;;;;;5034709;28;1281;-71
2024/03/18 05:07:48;;;;;;;;;;;17.90;62.60;;;;;;5037431;28;2027;-70
2024/03/18 05:10:18;;;;;;;;;;;17.90;62.70;;;;;;5036742;28;1115;-70
2024/03/18 05:12:43;;;;;;;;;;;17.90;62.60;;;;;;5037163;28;1406;-70
2024/03/18 05:15:09;;;;;;;;;;;17.90;62.60;;;;;;5037095;28;1380;-69
2024/03/18 05:17:34;;;;;;;;;;;17.90;62.50;;;;;;5037958;28;1349;-69
2024/03/18 05:20:00;;;;;;;;;;;17.90;62.40;;;;;;5040392;28;1355;-69
2024/03/18 05:22:25;;;;;;;;;;;17.90;62.30;;;;;;5038493;28;1334;-69
2024/03/18 05:24:51;;;;;;;;;;;18.00;62.30;;;;;;5037869;28;1588;-70
2024/03/18 05:27:17;;;;;;;;;;;18.00;62.20;;;;;;5045196;28;2032;-71
2024/03/18 05:29:42;;;;;;;;;;;18.00;62.00;;;;;;5039662;28;1335;-72
2024/03/18 05:32:12;;;;;;;;;;;18.00;62.00;;;;;;5045521;28;1417;-71
2024/03/18 05:34:38;;;;;;;;;;;18.10;61.90;;;;;;5038550;28;1585;-71
2024/03/18 05:37:04;;;;;;;;;;;18.10;61.90;;;;;;5038408;28;1340;-71
2024/03/18 05:39:32;;;;;;;;;;;18.10;61.70;;;;;;5040299;28;1391;-71
2024/03/18 05:41:58;;;;;;;;;;;18.10;61.60;;;;;;5040869;28;1231;-71
2024/03/18 05:44:23;;;;;;;;;;;18.20;61.60;;;;;;5041547;28;1423;-71
2024/03/18 05:46:49;;;;;;;;;;;18.20;61.60;;;;;;5074153;28;1898;-71
2024/03/18 05:49:15;;;;;;;;;;;18.20;61.50;;;;;;5027791;28;1529;-71
2024/03/18 05:51:40;;;;;;;;;;;18.20;61.40;;;;;;5048363;28;1693;-71
2024/03/18 05:54:05;;;;;;;;;;;18.20;61.30;;;;;;5025585;28;1402;-71
2024/03/18 05:56:31;;;;;;;;;;;18.20;61.30;;;;;;5037722;28;1135;-71
2024/03/18 05:58:57;;;;;;;;;;;18.20;61.20;;;;;;5043316;28;1342;-71
2024/03/18 06:01:22;;;;;;;;;;;18.20;61.20;;;;;;5024844;28;1359;-71
2024/03/18 06:03:48;;;;;;;;;;;18.30;62.00;;;;;;5042109;28;1448;-71
2024/03/18 06:06:13;;;;;;;;;;;18.30;61.10;;;;;;5041373;28;1337;-71
2024/03/18 06:08:39;;;;;;;;;;;18.30;61.10;;;;;;5040454;28;1902;-71
2024/03/18 06:11:04;;;;;;;;;;;18.30;61.10;;;;;;5040126;28;1351;-71
2024/03/18 06:13:30;;;;;;;;;;;18.30;61.00;;;;;;5032185;28;1301;-71
2024/03/18 06:15:56;;;;;;;;;;;18.30;61.00;;;;;;5040546;28;1484;-71
2024/03/18 06:18:21;;;;;;;;;;;18.30;61.00;;;;;;5040957;28;1577;-71
2024/03/18 06:20:50;;;;;;;;;;;18.30;60.90;;;;;;5040020;28;1507;-71
2024/03/18 06:23:18;;;;;;;;;;;18.30;60.90;;;;;;5041986;28;1280;-72
2024/03/18 06:25:59;;;;;;;;;;;18.30;60.90;;;;;;5041976;28;1247;-73
2024/03/18 06:28:25;;;;;;;;;;;18.40;61.00;;;;;;5044250;28;1955;-71
2024/03/18 06:30:51;;;;;;;;;;;18.30;60.90;;;;;;5044442;28;1738;-72
2024/03/18 06:33:20;;;;;;;;;;;18.30;60.90;;;;;;5040221;28;2096;-72
2024/03/18 06:35:45;;;;;;;;;;;18.30;60.90;;;;;;5038688;28;1612;-73
2024/03/18 06:38:11;;;;;;;;;;;18.40;61.00;;;;;;5053684;28;940;-71
2024/03/18 06:40:37;;;;;;;;;;;18.40;61.00;;;;;;5052401;28;1182;-68
2024/03/18 06:43:02;;;;;;;;;;;18.30;60.90;;;;;;5041684;28;1020;-68
2024/03/18 06:45:28;;;;;;;;;;;18.30;60.90;;;;;;5041995;28;1312;-66
2024/03/18 06:47:53;;;;;;;;;;;18.30;60.90;;;;;;5040334;28;1985;-66
2024/03/18 06:50:20;;;;;;;;;;;18.30;61.00;;;;;;5038527;28;884;-67
2024/03/18 06:52:45;;;;;;;;;;;18.30;61.70;;;;;;5071935;28;918;-67
2024/03/18 06:55:11;;;;;;;;;;;18.30;60.90;;;;;;5040694;28;1292;-67
2024/03/18 06:57:36;;;;;;;;;;;18.30;60.90;;;;;;5040989;28;1327;-67
2024/03/18 07:00:06;;;;;;;;;;;18.30;61.00;;;;;;5038630;28;1368;-68
2024/03/18 07:02:31;;;;;;;;;;;18.30;61.00;;;;;;5037460;28;1626;-68
2024/03/18 07:04:57;;;;;;;;;;;18.30;60.90;;;;;;5036183;28;1541;-70
2024/03/18 07:07:22;;;;;;;;;;;18.30;61.00;;;;;;5040259;28;1926;-67
2024/03/18 07:09:48;;;;;;;;;;;18.30;61.00;;;;;;5040009;28;1244;-66
2024/03/18 07:12:14;;;;;;;;;;;18.30;61.00;;;;;;5037426;28;1349;-66
2024/03/18 07:14:41;;;;;;;;;;;18.30;61.00;;;;;;5040964;28;1451;-71
2024/03/18 07:17:07;;;;;;;;;;;18.30;61.10;;;;;;5041012;28;1305;-71
2024/03/18 07:19:33;;;;;;;;;;;18.30;61.00;;;;;;5042371;28;1278;-71
2024/03/18 07:22:00;;;;;;;;;;;18.30;61.10;;;;;;5042887;28;1194;-72
2024/03/18 07:24:26;;;;;;;;;;;18.30;61.10;;;;;;5047029;28;1492;-71
2024/03/18 07:26:52;;;;;;;;;;;18.30;61.10;;;;;;5039862;28;1902;-71
2024/03/18 07:29:19;;;;;;;;;;;18.30;61.10;;;;;;5037019;28;1405;-71
2024/03/18 07:31:45;;;;;;;;;;;18.30;61.10;;;;;;5038306;28;1495;-69
2024/03/18 07:34:10;;;;;;;;;;;18.30;61.10;;;;;;5039833;28;1308;-69
2024/03/18 07:36:36;;;;;;;;;;;18.30;61.10;;;;;;5071059;28;1506;-69
2024/03/18 07:39:04;;;;;;;;;;;18.30;61.10;;;;;;5039139;28;1531;-69
2024/03/18 07:41:30;;;;;;;;;;;18.30;61.20;;;;;;5039142;28;1285;-69
2024/03/18 07:43:56;;;;;;;;;;;18.20;61.10;;;;;;5040812;28;1367;-69
2024/03/18 07:46:22;;;;;;;;;;;18.20;61.10;;;;;;5041317;28;1952;-69
2024/03/18 07:48:48;;;;;;;;;;;18.20;61.10;;;;;;5040405;28;1354;-71
2024/03/18 07:51:14;;;;;;;;;;;18.30;61.20;;;;;;5037366;28;1493;-69
2024/03/18 07:53:39;;;;;;;;;;;18.20;61.20;;;;;;5037660;28;1341;-68
2024/03/18 07:56:04;;;;;;;;;;;18.20;61.20;;;;;;5038736;28;1679;-69
2024/03/18 07:58:31;;;;;;;;;;;18.20;61.20;;;;;;5039623;28;1551;-69
2024/03/18 08:00:56;;;;;;;;;;;18.20;61.20;;;;;;5036449;28;1509;-72
2024/03/18 08:03:22;;;;;;;;;;;18.20;61.20;;;;;;5039504;28;1233;-72
2024/03/18 08:05:49;;;;;;;;;;;18.20;61.20;;;;;;5039126;28;1371;-72
2024/03/18 08:08:15;;;;;;;;;;;18.20;61.30;;;;;;5038984;28;1914;-72
2024/03/18 08:10:40;;;;;;;;;;;18.20;61.20;;;;;;5039171;28;1598;-72
2024/03/18 08:13:06;;;;;;;;;;;18.30;61.30;;;;;;5038269;28;1641;-72
2024/03/18 08:15:31;;;;;;;;;;;18.20;61.30;;;;;;5041122;28;1134;-72
2024/03/18 08:17:56;;;;;;;;;;;18.20;61.20;;;;;;5041110;28;1162;-72
2024/03/18 08:20:22;;;;;;;;;;;18.20;61.30;;;;;;5036952;28;1374;-72
2024/03/18 08:23:03;;;;;;;;;;;18.20;61.30;;;;;;5037682;28;1268;-72
2024/03/18 08:25:29;;;;;;;;;;;18.20;61.30;;;;;;5055442;28;1399;-72
2024/03/18 08:27:54;;;;;;;;;;;18.20;61.40;;;;;;5036429;28;1922;-72
2024/03/18 08:30:20;;;;;;;;;;;18.20;61.30;;;;;;5035577;28;1503;-72
2024/03/18 08:32:45;;;;;;;;;;;18.20;61.30;;;;;;5036693;28;1972;-71
2024/03/18 08:35:11;;;;;;;;;;;18.30;61.30;;;;;;5038490;28;1590;-72
2024/03/18 08:37:36;;;;;;;;;;;18.20;61.30;;;;;;5038910;28;1493;-71
2024/03/18 08:40:02;;;;;;;;;;;18.20;61.30;;;;;;5042203;28;1610;-71
2024/03/18 08:42:27;;;;;;;;;;;18.20;61.30;;;;;;5036536;28;1416;-68
2024/03/18 08:44:53;;;;;;;;;;;18.20;61.30;;;;;;5040244;28;1339;-68
2024/03/18 08:47:19;;;;;;;;;;;18.20;61.30;;;;;;5037082;28;1930;-70
2024/03/18 08:49:47;;;;;;;;;;;18.20;61.30;;;;;;5035682;28;1500;-71
2024/03/18 08:52:13;;;;;;;;;;;18.20;61.40;;;;;;5039155;28;1784;-71
2024/03/18 08:54:38;;;;;;;;;;;18.20;61.40;;;;;;5040243;28;1465;-71
2024/03/18 08:57:04;;;;;;;;;;;18.20;61.40;;;;;;5039784;28;1685;-72
2024/03/18 08:59:29;;;;;;;;;;;18.20;61.40;;;;;;5037608;28;1378;-72
2024/03/18 09:01:55;;;;;;;;;;;18.20;61.40;;;;;;5041559;28;1688;-71
2024/03/18 09:04:20;;;;;;;;;;;18.20;61.40;;;;;;5041984;28;1355;-71
2024/03/18 09:06:46;;;;;;;;;;;18.20;61.40;;;;;;5039721;28;1903;-71
2024/03/18 09:09:11;;;;;;;;;;;18.20;62.10;;;;;;5045387;28;1320;-70
2024/03/18 09:11:37;;;;;;;;;;;18.20;61.40;;;;;;5042973;28;1294;-71
2024/03/18 09:14:05;;;;;;;;;;;18.20;61.30;;;;;;5042158;28;1379;-71
2024/03/18 09:16:31;;;;;;;;;;;18.20;61.20;;;;;;5041202;28;1495;-72
2024/03/18 09:18:57;;;;;;;;;;;18.30;61.20;;;;;;5025809;28;1369;-72
2024/03/18 09:21:22;;;;;;;;;;;18.20;61.10;;;;;;5042838;28;1465;-72
2024/03/18 09:23:49;;;;;;;;;;;18.30;61.10;;;;;;5056950;28;1644;-72
2024/03/18 09:26:15;;;;;;;;;;;18.30;61.10;;;;;;5039849;28;1018;-72
2024/03/18 09:28:40;;;;;;;;;;;18.30;61.10;;;;;;5074074;28;1971;-72
2024/03/18 09:31:07;;;;;;;;;;;18.30;61.00;;;;;;5042404;28;1131;-72
2024/03/18 09:33:32;;;;;;;;;;;18.30;61.00;;;;;;5039706;28;1302;-72
2024/03/18 09:35:58;;;;;;;;;;;18.30;61.00;;;;;;5041922;28;1196;-72
2024/03/18 09:38:23;;;;;;;;;;;18.30;61.00;;;;;;5040952;28;1603;-73
2024/03/18 09:40:49;;;;;;;;;;;18.30;61.00;;;;;;5042465;28;998;-72
2024/03/18 09:43:15;;;;;;;;;;;18.30;61.00;;;;;;5041283;28;1286;-73
2024/03/18 09:45:40;;;;;;;;;;;18.30;61.00;;;;;;5038507;28;1102;-77
2024/03/18 09:48:06;;;;;;;;;;;18.30;61.00;;;;;;5050760;28;1967;-69
2024/03/18 09:50:31;;;;;;;;;;;18.40;61.10;;;;;;5032936;28;1269;-68
2024/03/18 09:52:57;;;;;;;;;;;18.30;61.00;;;;;;5039031;28;1421;-68
2024/03/18 09:55:23;;;;;;;;;;;18.30;61.00;;;;;;5041854;28;1311;-70
2024/03/18 09:57:49;;;;;;;;;;;18.30;61.00;;;;;;5043559;28;875;-70
2024/03/18 10:00:19;;;;;;;;;;;18.30;61.00;;;;;;5042440;28;914;-70
2024/03/18 10:02:45;;;;;;;;;;;18.30;61.00;;;;;;5043447;28;852;-69
2024/03/18 10:05:10;;;;;;;;;;;18.30;61.00;;;;;;5039725;28;1551;-70
2024/03/18 10:07:36;;;;;;;;;;;18.40;61.00;;;;;;5048735;28;1902;-70
2024/03/18 10:10:02;;;;;;;;;;;18.30;61.00;;;;;;5038225;28;1382;-70
2024/03/18 10:12:28;;;;;;;;;;;18.40;61.00;;;;;;5037116;28;1509;-70
2024/03/18 10:14:53;;;;;;;;;;;18.40;61.00;;;;;;5039514;28;1288;-70
2024/03/18 10:17:19;;;;;;;;;;;18.40;61.00;;;;;;5038808;28;1544;-70
2024/03/18 10:19:44;;;;;;;;;;;18.40;60.90;;;;;;5038087;28;1409;-70
2024/03/18 10:22:10;;;;;;;;;;;18.40;60.90;;;;;;5044631;28;1554;-70
2024/03/18 10:24:37;;;;;;;;;;;18.40;60.90;;;;;;5048906;28;1267;-71
2024/03/18 10:27:03;;;;;;;;;;;18.40;61.00;;;;;;5040535;28;1898;-70
2024/03/18 10:29:29;;;;;;;;;;;18.40;60.90;;;;;;5055617;28;1821;-71
2024/03/18 10:31:54;;;;;;;;;;;18.40;61.00;;;;;;5055601;28;1539;-71
2024/03/18 10:34:20;;;;;;;;;;;18.40;61.00;;;;;;5040291;28;1617;-71
2024/03/18 10:36:46;;;;;;;;;;;18.40;61.00;;;;;;5039715;28;1253;-72
2024/03/18 10:39:15;;;;;;;;;;;18.40;61.00;;;;;;5040203;28;1271;-71
2024/03/18 10:41:41;;;;;;;;;;;18.40;61.00;;;;;;5037273;28;1630;-71
2024/03/18 10:44:11;;;;;;;;;;;18.40;61.00;;;;;;5038172;28;1383;-72
2024/03/18 10:46:36;;;;;;;;;;;18.40;61.00;;;;;;5039424;28;1965;-71
2024/03/18 10:49:02;;;;;;;;;;;18.40;61.00;;;;;;5039852;28;1300;-72
2024/03/18 10:51:27;;;;;;;;;;;18.30;61.00;;;;;;5038218;28;970;-71
2024/03/18 10:53:53;;;;;;;;;;;18.40;61.00;;;;;;5036499;28;1389;-71
2024/03/18 10:56:19;;;;;;;;;;;18.40;61.00;;;;;;5038031;28;1393;-71
2024/03/18 10:58:44;;;;;;;;;;;18.40;61.00;;;;;;5047182;28;1776;-71
2024/03/18 11:01:10;;;;;;;;;;;18.40;61.70;;;;;;5039002;28;1530;-72
2024/03/18 11:03:41;;;;;;;;;;;18.40;61.00;;;;;;5038766;28;1613;-71
2024/03/18 11:06:11;;;;;;;;;;;18.40;61.00;;;;;;5038459;28;1343;-71
2024/03/18 11:08:36;;;;;;;;;;;18.40;61.00;;;;;;5037749;28;1906;-71
2024/03/18 11:11:02;;;;;;;;;;;18.40;60.90;;;;;;5040792;28;1383;-71
2024/03/18 11:13:34;;;;;;;;;;;18.40;61.00;;;;;;5040619;28;1300;-71
2024/03/18 11:16:04;;;;;;;;;;;18.40;60.90;;;;;;5070356;28;1111;-71
2024/03/18 11:18:30;;;;;;;;;;;18.40;60.90;;;;;;5038576;28;1245;-72
2024/03/18 11:20:59;;;;;;;;;;;18.40;60.90;;;;;;5034309;28;1532;-72
2024/03/18 11:23:25;;;;;;;;;;;18.40;61.00;;;;;;5023516;28;1285;-71
2024/03/18 11:25:51;;;;;;;;;;;18.40;61.00;;;;;;5047067;28;1411;-72
2024/03/18 11:28:17;;;;;;;;;;;18.40;61.00;;;;;;5036408;28;1951;-70
2024/03/18 11:30:42;;;;;;;;;;;18.40;61.00;;;;;;5039259;28;1589;-72
2024/03/18 11:33:08;;;;;;;;;;;18.40;61.00;;;;;;5040817;28;1724;-72
2024/03/18 11:35:34;;;;;;;;;;;18.40;61.00;;;;;;5038700;28;1150;-73
2024/03/18 11:38:00;;;;;;;;;;;18.40;61.00;;;;;;5044034;28;1298;-74
2024/03/18 11:40:25;;;;;;;;;;;18.40;61.00;;;;;;5071551;28;1336;-73
2024/03/18 11:42:51;;;;;;;;;;;18.40;61.00;;;;;;5046739;28;1832;-70
2024/03/18 11:45:17;;;;;;;;;;;18.40;61.00;;;;;;5043459;28;1629;-72
2024/03/18 11:47:42;;;;;;;;;;;18.40;61.00;;;;;;5043360;28;1903;-72
2024/03/18 11:50:10;;;;;;;;;;;18.40;61.00;;;;;;5041648;28;1265;-72
2024/03/18 11:52:35;;;;;;;;;;;18.40;61.00;;;;;;5040209;28;1406;-72
2024/03/18 11:55:03;;;;;;;;;;;18.40;61.00;;;;;;5038953;28;1578;-73
2024/03/18 11:57:29;;;;;;;;;;;18.40;61.00;;;;;;5039995;28;1345;-72
2024/03/18 11:59:56;;;;;;;;;;;18.40;61.00;;;;;;5039916;28;1368;-71
2024/03/18 12:02:21;;;;;;;;;;;18.40;61.00;;;;;;5038481;28;1267;-72
2024/03/18 12:04:47;;;;;;;;;;;18.40;61.00;;;;;;5036954;28;1547;-72
2024/03/18 12:07:12;;;;;;;;;;;18.40;61.10;;;;;;5044249;28;2191;-71
2024/03/18 12:09:38;;;;;;;;;;;18.40;61.80;;;;;;5070854;28;1506;-68
2024/03/18 12:12:03;;;;;;;;;;;18.30;61.00;;;;;;5036779;28;1454;-68
2024/03/18 12:14:29;;;;;;;;;;;18.30;61.00;;;;;;5038863;28;1758;-68
2024/03/18 12:16:54;;;;;;;;;;;18.30;61.00;;;;;;5040144;28;2024;-68
2024/03/18 12:19:20;;;;;;;;;;;18.30;61.00;;;;;;5037653;28;1622;-68
2024/03/18 12:21:49;;;;;;;;;;;18.30;61.00;;;;;;5037148;28;1597;-70
2024/03/18 12:29:42;;;;;;;;;;;18.30;61.10;;;;;;5038175;28;1128;-69
2024/03/18 12:32:12;;;;;;;;;;;18.30;61.10;;;;;;5070148;28;1226;-69
2024/03/18 12:34:37;;;;;;;;;;;18.30;61.10;;;;;;5040893;28;1545;-69
2024/03/18 12:37:03;;;;;;;;;;;18.30;61.10;;;;;;5043757;28;1675;-69
2024/03/18 12:39:29;;;;;;;;;;;18.30;61.20;;;;;;5043830;28;1524;-69
2024/03/18 12:41:59;;;;;;;;;;;18.30;61.20;;;;;;5041002;28;1445;-69
2024/03/18 12:44:25;;;;;;;;;;;18.30;61.20;;;;;;5043757;28;1560;-71
2024/03/18 12:46:50;;;;;;;;;;;18.20;61.20;;;;;;5045639;28;1902;-71
2024/03/18 12:49:16;;;;;;;;;;;18.20;61.20;;;;;;5045615;28;1546;-71
2024/03/18 12:51:41;;;;;;;;;;;18.30;61.30;;;;;;5046159;28;1332;-71
2024/03/18 12:54:08;;;;;;;;;;;18.20;61.30;;;;;;5052669;28;1401;-70
2024/03/18 12:56:34;;;;;;;;;;;18.20;61.30;;;;;;5041560;28;1132;-71
2024/03/18 12:58:59;;;;;;;;;;;18.20;61.20;;;;;;5047033;28;1246;-74
2024/03/18 13:01:25;;;;;;;;;;;18.20;61.30;;;;;;5047755;28;1278;-70
2024/03/18 13:03:51;;;;;;;;;;;18.20;61.40;;;;;;5046204;28;1418;-71
2024/03/18 13:06:18;;;;;;;;;;;18.20;61.30;;;;;;5047077;28;1315;-71
2024/03/18 13:08:44;;;;;;;;;;;18.20;61.40;;;;;;5027617;28;2265;-71
2024/03/18 13:11:12;;;;;;;;;;;18.20;61.40;;;;;;5046485;28;1524;-70
2024/03/18 13:13:43;;;;;;;;;;;18.20;61.40;;;;;;5042397;28;1258;-71
2024/03/18 13:16:09;;;;;;;;;;;18.20;61.50;;;;;;5046200;28;1251;-71
2024/03/18 13:18:35;;;;;;;;;;;18.20;61.50;;;;;;5044222;28;1386;-71
2024/03/18 13:21:00;;;;;;;;;;;18.20;61.50;;;;;;5044021;28;1186;-70
2024/03/18 13:23:32;;;;;;;;;;;18.20;61.50;;;;;;5047846;28;1359;-68
2024/03/18 13:25:59;;;;;;;;;;;18.20;61.50;;;;;;5047708;28;1456;-68
2024/03/18 13:28:24;;;;;;;;;;;18.20;61.50;;;;;;5047781;28;1910;-69
2024/03/18 13:30:50;;;;;;;;;;;18.20;61.50;;;;;;5046380;28;1626;-69
2024/03/18 13:33:16;;;;;;;;;;;18.10;62.20;;;;;;5046764;28;1465;-69
2024/03/18 13:35:41;;;;;;;;;;;18.20;61.60;;;;;;5048059;28;1297;-70
2024/03/18 13:38:07;;;;;;;;;;;18.20;61.60;;;;;;5042283;28;1596;-70
2024/03/18 13:40:33;;;;;;;;;;;18.10;61.50;;;;;;5040291;28;1650;-68
2024/03/18 13:42:58;;;;;;;;;;;18.10;62.30;;;;;;5077373;28;1287;-69
2024/03/18 13:45:24;;;;;;;;;;;18.20;61.60;;;;;;5041977;28;1487;-68
2024/03/18 13:47:53;;;;;;;;;;;18.20;61.60;;;;;;5040085;28;1906;-70
2024/03/18 13:50:24;;;;;;;;;;;18.10;61.50;;;;;;5043493;28;1094;-69
2024/03/18 13:52:50;;;;;;;;;;;18.20;61.60;;;;;;5038967;28;1540;-70
2024/03/18 13:55:15;;;;;;;;;;;18.10;61.50;;;;;;5041344;28;1405;-70
2024/03/18 13:57:41;;;;;;;;;;;18.20;61.50;;;;;;5048806;28;1303;-70
2024/03/18 14:00:10;;;;;;;;;;;18.20;61.60;;;;;;5039226;28;1429;-70
2024/03/18 14:02:37;;;;;;;;;;;18.20;61.50;;;;;;5041717;28;1420;-70
2024/03/18 14:05:02;;;;;;;;;;;18.20;61.50;;;;;;5038553;28;1595;-70
2024/03/18 14:07:28;;;;;;;;;;;18.20;61.60;;;;;;5038201;28;2009;-70
2024/03/18 14:09:55;;;;;;;;;;;18.20;61.50;;;;;;5038586;28;1538;-70
2024/03/18 14:12:21;;;;;;;;;;;18.20;61.50;;;;;;5039596;28;1231;-70
2024/03/18 14:14:50;;;;;;;;;;;18.20;61.50;;;;;;5038431;28;1469;-70
2024/03/18 14:17:15;;;;;;;;;;;18.20;61.50;;;;;;5025561;28;1589;-70
2024/03/18 14:19:41;;;;;;;;;;;18.20;61.50;;;;;;5039250;28;1163;-70
2024/03/18 14:22:07;;;;;;;;;;;18.20;61.40;;;;;;5073544;28;1658;-70
2024/03/18 14:24:32;;;;;;;;;;;18.20;61.40;;;;;;5040254;28;1532;-70
2024/03/18 14:26:58;;;;;;;;;;;18.20;61.40;;;;;;5055391;28;1949;-70
2024/03/18 14:29:24;;;;;;;;;;;18.20;61.30;;;;;;5047254;28;1429;-70